sensor_id;sensor_type;location;lat;lon;timestamp;P1;durP1;ratioP1;P2;durP2;ratioP2
57615;SDS011;43816;52.054;-9.494;2024-01-30T00:00:02;18.55;;;17.17;;
57615;SDS011;43816;52.054;-9.494;2024-01-30T00:00:12;18.17;;;16.87;;
57615;SDS011;43816;52.054;-9.494;2024-01-30T00:00:25;18.65;;;17.17;;
57615;SDS011;43816;52.054;-9.494;2024-01-30T00:00:35;18.83;;;17.33;;
57615;SDS011;43816;52.054;-9.494;2024-01-30T00:00:45;19.10;;;17.60;;
57615;SDS011;43816;52.054;-9.494;2024-01-30T00:00:56;19.00;;;17.50;;
57615;SDS011;43816;52.054;-9.494;2024-01-30T00:01:07;18.55;;;17.10;;
57615;SDS011;43816;52.054;-9.494;2024-01-30T00:01:17;18.33;;;16.87;;
57615;SDS011;43816;52.054;-9.494;2024-01-30T00:01:27;17.87;;;16.53;;
57615;SDS011;43816;52.054;-9.494;2024-01-30T00:01:38;18.30;;;16.90;;
57615;SDS011;43816;52.054;-9.494;2024-01-30T00:01:48;18.57;;;17.17;;
57615;SDS011;43816;52.054;-9.494;2024-01-30T00:01:58;18.77;;;17.38;;
57615;SDS011;43816;52.054;-9.494;2024-01-30T00:02:09;18.53;;;17.20;;
57615;SDS011;43816;52.054;-9.494;2024-01-30T00:02:19;18.33;;;16.93;;
57615;SDS011;43816;52.054;-9.494;2024-01-30T00:02:29;18.37;;;16.87;;
57615;SDS011;43816;52.054;-9.494;2024-01-30T00:02:40;18.60;;;17.10;;
57615;SDS011;43816;52.054;-9.494;2024-01-30T00:02:50;18.50;;;17.10;;
57615;SDS011;43816;52.054;-9.494;2024-01-30T00:03:01;18.10;;;16.70;;
57615;SDS011;43816;52.054;-9.494;2024-01-30T00:03:11;17.47;;;16.17;;
57615;SDS011;43816;52.054;-9.494;2024-01-30T00:03:21;17.38;;;16.08;;
57615;SDS011;43816;52.054;-9.494;2024-01-30T00:03:32;17.80;;;16.50;;
57615;SDS011;43816;52.054;-9.494;2024-01-30T00:03:42;18.08;;;16.75;;
57615;SDS011;43816;52.054;-9.494;2024-01-30T00:03:52;18.40;;;17.00;;
57615;SDS011;43816;52.054;-9.494;2024-01-30T00:04:02;18.17;;;16.77;;
57615;SDS011;43816;52.054;-9.494;2024-01-30T00:04:13;18.00;;;16.65;;
57615;SDS011;43816;52.054;-9.494;2024-01-30T00:04:23;17.90;;;16.60;;
57615;SDS011;43816;52.054;-9.494;2024-01-30T00:04:33;18.30;;;17.00;;
57615;SDS011;43816;52.054;-9.494;2024-01-30T00:04:44;18.48;;;17.17;;
57615;SDS011;43816;52.054;-9.494;2024-01-30T00:04:54;18.50;;;17.17;;
57615;SDS011;43816;52.054;-9.494;2024-01-30T00:05:04;18.27;;;16.87;;
57615;SDS011;43816;52.054;-9.494;2024-01-30T00:05:15;17.83;;;16.50;;
57615;SDS011;43816;52.054;-9.494;2024-01-30T00:05:25;17.50;;;16.20;;
57615;SDS011;43816;52.054;-9.494;2024-01-30T00:05:36;17.65;;;16.35;;
57615;SDS011;43816;52.054;-9.494;2024-01-30T00:05:46;17.70;;;16.33;;
57615;SDS011;43816;52.054;-9.494;2024-01-30T00:05:56;17.80;;;16.30;;
57615;SDS011;43816;52.054;-9.494;2024-01-30T00:06:07;17.70;;;16.27;;
57615;SDS011;43816;52.054;-9.494;2024-01-30T00:06:18;17.70;;;16.35;;
57615;SDS011;43816;52.054;-9.494;2024-01-30T00:06:29;17.88;;;16.58;;
57615;SDS011;43816;52.054;-9.494;2024-01-30T00:06:39;17.98;;;16.67;;
57615;SDS011;43816;52.054;-9.494;2024-01-30T00:06:50;18.27;;;16.87;;
57615;SDS011;43816;52.054;-9.494;2024-01-30T00:07:01;18.10;;;16.70;;
57615;SDS011;43816;52.054;-9.494;2024-01-30T00:07:11;17.87;;;16.47;;
57615;SDS011;43816;52.054;-9.494;2024-01-30T00:07:21;17.48;;;16.17;;
57615;SDS011;43816;52.054;-9.494;2024-01-30T00:07:31;17.83;;;16.43;;
57615;SDS011;43816;52.054;-9.494;2024-01-30T00:07:42;18.33;;;16.90;;
57615;SDS011;43816;52.054;-9.494;2024-01-30T00:07:52;18.65;;;17.15;;
57615;SDS011;43816;52.054;-9.494;2024-01-30T00:08:03;18.50;;;17.10;;
57615;SDS011;43816;52.054;-9.494;2024-01-30T00:08:13;18.33;;;16.92;;
57615;SDS011;43816;52.054;-9.494;2024-01-30T00:08:23;17.90;;;16.60;;
57615;SDS011;43816;52.054;-9.494;2024-01-30T00:08:34;17.40;;;16.13;;
57615;SDS011;43816;52.054;-9.494;2024-01-30T00:08:44;17.70;;;16.40;;
57615;SDS011;43816;52.054;-9.494;2024-01-30T00:08:55;17.77;;;16.50;;
57615;SDS011;43816;52.054;-9.494;2024-01-30T00:09:05;17.80;;;16.55;;
57615;SDS011;43816;52.054;-9.494;2024-01-30T00:09:15;17.40;;;16.20;;
57615;SDS011;43816;52.054;-9.494;2024-01-30T00:09:26;17.63;;;16.33;;
57615;SDS011;43816;52.054;-9.494;2024-01-30T00:09:37;17.63;;;16.38;;
57615;SDS011;43816;52.054;-9.494;2024-01-30T00:09:48;17.65;;;16.38;;
57615;SDS011;43816;52.054;-9.494;2024-01-30T00:09:58;17.60;;;16.30;;
57615;SDS011;43816;52.054;-9.494;2024-01-30T00:10:08;17.63;;;16.30;;
57615;SDS011;43816;52.054;-9.494;2024-01-30T00:10:19;17.80;;;16.40;;
57615;SDS011;43816;52.054;-9.494;2024-01-30T00:10:29;17.40;;;16.10;;
57615;SDS011;43816;52.054;-9.494;2024-01-30T00:10:39;16.98;;;15.77;;
57615;SDS011;43816;52.054;-9.494;2024-01-30T00:10:50;16.73;;;15.53;;
57615;SDS011;43816;52.054;-9.494;2024-01-30T00:11:00;16.90;;;15.70;;
57615;SDS011;43816;52.054;-9.494;2024-01-30T00:11:10;17.17;;;15.98;;
57615;SDS011;43816;52.054;-9.494;2024-01-30T00:11:21;17.13;;;15.93;;
57615;SDS011;43816;52.054;-9.494;2024-01-30T00:11:31;17.27;;;15.97;;
57615;SDS011;43816;52.054;-9.494;2024-01-30T00:11:41;17.30;;;16.00;;
57615;SDS011;43816;52.054;-9.494;2024-01-30T00:11:52;17.40;;;16.03;;
57615;SDS011;43816;52.054;-9.494;2024-01-30T00:12:02;17.50;;;16.20;;
57615;SDS011;43816;52.054;-9.494;2024-01-30T00:12:12;17.15;;;15.85;;
57615;SDS011;43816;52.054;-9.494;2024-01-30T00:12:24;16.83;;;15.53;;
57615;SDS011;43816;52.054;-9.494;2024-01-30T00:12:34;16.98;;;15.65;;
57615;SDS011;43816;52.054;-9.494;2024-01-30T00:12:45;17.67;;;16.27;;
57615;SDS011;43816;52.054;-9.494;2024-01-30T00:12:55;17.93;;;16.50;;
57615;SDS011;43816;52.054;-9.494;2024-01-30T00:13:05;17.63;;;16.30;;
57615;SDS011;43816;52.054;-9.494;2024-01-30T00:13:15;17.20;;;16.00;;
57615;SDS011;43816;52.054;-9.494;2024-01-30T00:13:26;16.70;;;15.50;;
57615;SDS011;43816;52.054;-9.494;2024-01-30T00:13:36;16.60;;;15.40;;
57615;SDS011;43816;52.054;-9.494;2024-01-30T00:13:46;16.27;;;15.07;;
57615;SDS011;43816;52.054;-9.494;2024-01-30T00:13:57;16.60;;;15.40;;
57615;SDS011;43816;52.054;-9.494;2024-01-30T00:14:07;17.10;;;15.80;;
57615;SDS011;43816;52.054;-9.494;2024-01-30T00:14:17;17.10;;;15.80;;
57615;SDS011;43816;52.054;-9.494;2024-01-30T00:14:27;17.10;;;15.80;;
57615;SDS011;43816;52.054;-9.494;2024-01-30T00:14:38;16.73;;;15.50;;
57615;SDS011;43816;52.054;-9.494;2024-01-30T00:14:48;16.87;;;15.60;;
57615;SDS011;43816;52.054;-9.494;2024-01-30T00:14:58;16.70;;;15.50;;
57615;SDS011;43816;52.054;-9.494;2024-01-30T00:15:09;16.63;;;15.43;;
57615;SDS011;43816;52.054;-9.494;2024-01-30T00:15:20;16.52;;;15.35;;
57615;SDS011;43816;52.054;-9.494;2024-01-30T00:15:30;16.80;;;15.60;;
57615;SDS011;43816;52.054;-9.494;2024-01-30T00:15:40;16.77;;;15.57;;
57615;SDS011;43816;52.054;-9.494;2024-01-30T00:15:50;16.73;;;15.52;;
57615;SDS011;43816;52.054;-9.494;2024-01-30T00:16:01;16.43;;;15.23;;
57615;SDS011;43816;52.054;-9.494;2024-01-30T00:16:20;16.30;;;15.20;;
57615;SDS011;43816;52.054;-9.494;2024-01-30T00:16:31;16.38;;;15.23;;
57615;SDS011;43816;52.054;-9.494;2024-01-30T00:16:42;16.70;;;15.40;;
57615;SDS011;43816;52.054;-9.494;2024-01-30T00:16:52;16.37;;;15.10;;
57615;SDS011;43816;52.054;-9.494;2024-01-30T00:17:02;16.30;;;15.07;;
57615;SDS011;43816;52.054;-9.494;2024-01-30T00:17:13;16.33;;;15.13;;
57615;SDS011;43816;52.054;-9.494;2024-01-30T00:17:23;16.70;;;15.43;;
57615;SDS011;43816;52.054;-9.494;2024-01-30T00:17:33;16.60;;;15.40;;
57615;SDS011;43816;52.054;-9.494;2024-01-30T00:17:43;16.17;;;15.00;;
57615;SDS011;43816;52.054;-9.494;2024-01-30T00:17:54;16.00;;;14.90;;
57615;SDS011;43816;52.054;-9.494;2024-01-30T00:18:04;16.60;;;15.32;;
57615;SDS011;43816;52.054;-9.494;2024-01-30T00:18:14;16.87;;;15.57;;
57615;SDS011;43816;52.054;-9.494;2024-01-30T00:18:25;16.63;;;15.40;;
57615;SDS011;43816;52.054;-9.494;2024-01-30T00:18:35;16.60;;;15.32;;
57615;SDS011;43816;52.054;-9.494;2024-01-30T00:18:45;16.63;;;15.33;;
57615;SDS011;43816;52.054;-9.494;2024-01-30T00:18:56;16.42;;;15.13;;
57615;SDS011;43816;52.054;-9.494;2024-01-30T00:19:06;15.93;;;14.73;;
57615;SDS011;43816;52.054;-9.494;2024-01-30T00:19:17;15.77;;;14.57;;
57615;SDS011;43816;52.054;-9.494;2024-01-30T00:19:27;15.93;;;14.73;;
57615;SDS011;43816;52.054;-9.494;2024-01-30T00:19:37;16.10;;;14.90;;
57615;SDS011;43816;52.054;-9.494;2024-01-30T00:19:48;16.23;;;15.03;;
57615;SDS011;43816;52.054;-9.494;2024-01-30T00:19:58;16.50;;;15.30;;
57615;SDS011;43816;52.054;-9.494;2024-01-30T00:20:08;16.60;;;15.40;;
57615;SDS011;43816;52.054;-9.494;2024-01-30T00:20:20;16.47;;;15.27;;
57615;SDS011;43816;52.054;-9.494;2024-01-30T00:20:30;15.90;;;14.76;;
57615;SDS011;43816;52.054;-9.494;2024-01-30T00:20:41;15.73;;;14.53;;
57615;SDS011;43816;52.054;-9.494;2024-01-30T00:20:51;15.80;;;14.60;;
57615;SDS011;43816;52.054;-9.494;2024-01-30T00:21:01;15.98;;;14.80;;
57615;SDS011;43816;52.054;-9.494;2024-01-30T00:21:12;15.60;;;14.50;;
57615;SDS011;43816;52.054;-9.494;2024-01-30T00:21:22;15.53;;;14.33;;
57615;SDS011;43816;52.054;-9.494;2024-01-30T00:21:33;15.70;;;14.50;;
57615;SDS011;43816;52.054;-9.494;2024-01-30T00:21:44;15.70;;;14.50;;
57615;SDS011;43816;52.054;-9.494;2024-01-30T00:21:54;15.90;;;14.70;;
57615;SDS011;43816;52.054;-9.494;2024-01-30T00:22:04;15.70;;;14.50;;
57615;SDS011;43816;52.054;-9.494;2024-01-30T00:22:15;15.97;;;14.77;;
57615;SDS011;43816;52.054;-9.494;2024-01-30T00:22:25;15.63;;;14.45;;
57615;SDS011;43816;52.054;-9.494;2024-01-30T00:22:35;15.70;;;14.50;;
57615;SDS011;43816;52.054;-9.494;2024-01-30T00:22:46;15.50;;;14.30;;
57615;SDS011;43816;52.054;-9.494;2024-01-30T00:22:56;15.43;;;14.27;;
57615;SDS011;43816;52.054;-9.494;2024-01-30T00:23:06;15.60;;;14.40;;
57615;SDS011;43816;52.054;-9.494;2024-01-30T00:23:16;15.80;;;14.60;;
57615;SDS011;43816;52.054;-9.494;2024-01-30T00:23:27;16.27;;;14.98;;
57615;SDS011;43816;52.054;-9.494;2024-01-30T00:23:37;16.10;;;14.90;;
57615;SDS011;43816;52.054;-9.494;2024-01-30T00:23:47;15.80;;;14.60;;
57615;SDS011;43816;52.054;-9.494;2024-01-30T00:23:58;15.38;;;14.27;;
57615;SDS011;43816;52.054;-9.494;2024-01-30T00:24:08;15.57;;;14.40;;
57615;SDS011;43816;52.054;-9.494;2024-01-30T00:24:18;15.30;;;14.20;;
57615;SDS011;43816;52.054;-9.494;2024-01-30T00:24:29;15.35;;;14.25;;
57615;SDS011;43816;52.054;-9.494;2024-01-30T00:24:39;15.00;;;13.90;;
57615;SDS011;43816;52.054;-9.494;2024-01-30T00:24:49;15.30;;;14.20;;
57615;SDS011;43816;52.054;-9.494;2024-01-30T00:25:08;15.30;;;14.10;;
57615;SDS011;43816;52.054;-9.494;2024-01-30T00:25:18;15.58;;;14.38;;
57615;SDS011;43816;52.054;-9.494;2024-01-30T00:25:28;15.90;;;14.70;;
57615;SDS011;43816;52.054;-9.494;2024-01-30T00:25:39;15.93;;;14.73;;
57615;SDS011;43816;52.054;-9.494;2024-01-30T00:25:49;15.75;;;14.55;;
57615;SDS011;43816;52.054;-9.494;2024-01-30T00:26:03;15.55;;;14.45;;
57615;SDS011;43816;52.054;-9.494;2024-01-30T00:26:16;15.43;;;14.32;;
57615;SDS011;43816;52.054;-9.494;2024-01-30T00:26:28;15.65;;;14.45;;
57615;SDS011;43816;52.054;-9.494;2024-01-30T00:26:38;15.32;;;14.13;;
57615;SDS011;43816;52.054;-9.494;2024-01-30T00:26:58;14.45;;;13.45;;
57615;SDS011;43816;52.054;-9.494;2024-01-30T00:27:17;15.15;;;14.05;;
57615;SDS011;43816;52.054;-9.494;2024-01-30T00:27:28;15.23;;;14.13;;
57615;SDS011;43816;52.054;-9.494;2024-01-30T00:27:38;14.80;;;13.70;;
57615;SDS011;43816;52.054;-9.494;2024-01-30T00:27:51;14.73;;;13.63;;
57615;SDS011;43816;52.054;-9.494;2024-01-30T00:28:06;14.75;;;13.57;;
57615;SDS011;43816;52.054;-9.494;2024-01-30T00:28:17;15.13;;;13.93;;
57615;SDS011;43816;52.054;-9.494;2024-01-30T00:28:27;15.30;;;14.10;;
57615;SDS011;43816;52.054;-9.494;2024-01-30T00:28:38;15.33;;;14.23;;
57615;SDS011;43816;52.054;-9.494;2024-01-30T00:28:48;15.03;;;13.93;;
57615;SDS011;43816;52.054;-9.494;2024-01-30T00:28:58;15.02;;;13.93;;
57615;SDS011;43816;52.054;-9.494;2024-01-30T00:29:09;14.77;;;13.67;;
57615;SDS011;43816;52.054;-9.494;2024-01-30T00:29:19;15.03;;;13.93;;
57615;SDS011;43816;52.054;-9.494;2024-01-30T00:29:29;15.40;;;14.20;;
57615;SDS011;43816;52.054;-9.494;2024-01-30T00:29:40;15.87;;;14.67;;
57615;SDS011;43816;52.054;-9.494;2024-01-30T00:29:50;15.80;;;14.60;;
57615;SDS011;43816;52.054;-9.494;2024-01-30T00:30:00;15.48;;;14.38;;
57615;SDS011;43816;52.054;-9.494;2024-01-30T00:30:11;15.13;;;14.03;;
57615;SDS011;43816;52.054;-9.494;2024-01-30T00:30:23;14.70;;;13.60;;
57615;SDS011;43816;52.054;-9.494;2024-01-30T00:30:33;14.60;;;13.50;;
57615;SDS011;43816;52.054;-9.494;2024-01-30T00:30:45;14.57;;;13.57;;
57615;SDS011;43816;52.054;-9.494;2024-01-30T00:30:55;14.67;;;13.57;;
57615;SDS011;43816;52.054;-9.494;2024-01-30T00:31:05;14.95;;;13.85;;
57615;SDS011;43816;52.054;-9.494;2024-01-30T00:31:16;15.27;;;14.07;;
57615;SDS011;43816;52.054;-9.494;2024-01-30T00:31:26;15.20;;;14.10;;
57615;SDS011;43816;52.054;-9.494;2024-01-30T00:31:36;15.05;;;13.95;;
57615;SDS011;43816;52.054;-9.494;2024-01-30T00:31:48;14.90;;;13.80;;
57615;SDS011;43816;52.054;-9.494;2024-01-30T00:31:58;15.00;;;13.90;;
57615;SDS011;43816;52.054;-9.494;2024-01-30T00:32:08;14.60;;;13.53;;
57615;SDS011;43816;52.054;-9.494;2024-01-30T00:32:19;14.65;;;13.55;;
57615;SDS011;43816;52.054;-9.494;2024-01-30T00:32:29;14.47;;;13.37;;
57615;SDS011;43816;52.054;-9.494;2024-01-30T00:32:39;14.60;;;13.50;;
57615;SDS011;43816;52.054;-9.494;2024-01-30T00:32:50;14.82;;;13.70;;
57615;SDS011;43816;52.054;-9.494;2024-01-30T00:33:00;15.07;;;13.87;;
57615;SDS011;43816;52.054;-9.494;2024-01-30T00:33:10;15.20;;;14.00;;
57615;SDS011;43816;52.054;-9.494;2024-01-30T00:33:20;15.40;;;14.10;;
57615;SDS011;43816;52.054;-9.494;2024-01-30T00:33:31;15.15;;;13.95;;
57615;SDS011;43816;52.054;-9.494;2024-01-30T00:33:41;15.07;;;13.87;;
57615;SDS011;43816;52.054;-9.494;2024-01-30T00:33:52;14.57;;;13.48;;
57615;SDS011;43816;52.054;-9.494;2024-01-30T00:34:02;14.53;;;13.43;;
57615;SDS011;43816;52.054;-9.494;2024-01-30T00:34:12;14.95;;;13.85;;
57615;SDS011;43816;52.054;-9.494;2024-01-30T00:34:23;14.57;;;13.57;;
57615;SDS011;43816;52.054;-9.494;2024-01-30T00:34:33;14.80;;;13.73;;
57615;SDS011;43816;52.054;-9.494;2024-01-30T00:34:43;14.70;;;13.60;;
57615;SDS011;43816;52.054;-9.494;2024-01-30T00:34:54;14.80;;;13.70;;
57615;SDS011;43816;52.054;-9.494;2024-01-30T00:35:04;14.70;;;13.60;;
57615;SDS011;43816;52.054;-9.494;2024-01-30T00:35:15;14.60;;;13.50;;
57615;SDS011;43816;52.054;-9.494;2024-01-30T00:35:25;14.73;;;13.63;;
57615;SDS011;43816;52.054;-9.494;2024-01-30T00:35:35;14.60;;;13.50;;
57615;SDS011;43816;52.054;-9.494;2024-01-30T00:35:45;14.83;;;13.73;;
57615;SDS011;43816;52.054;-9.494;2024-01-30T00:35:56;14.77;;;13.67;;
57615;SDS011;43816;52.054;-9.494;2024-01-30T00:36:07;14.80;;;13.68;;
57615;SDS011;43816;52.054;-9.494;2024-01-30T00:36:18;14.36;;;13.26;;
57615;SDS011;43816;52.054;-9.494;2024-01-30T00:36:28;14.30;;;13.20;;
57615;SDS011;43816;52.054;-9.494;2024-01-30T00:36:38;14.30;;;13.20;;
57615;SDS011;43816;52.054;-9.494;2024-01-30T00:36:49;14.33;;;13.20;;
57615;SDS011;43816;52.054;-9.494;2024-01-30T00:36:59;14.30;;;13.10;;
57615;SDS011;43816;52.054;-9.494;2024-01-30T00:37:09;14.10;;;12.93;;
57615;SDS011;43816;52.054;-9.494;2024-01-30T00:37:20;14.30;;;13.20;;
57615;SDS011;43816;52.054;-9.494;2024-01-30T00:37:30;14.00;;;13.00;;
57615;SDS011;43816;52.054;-9.494;2024-01-30T00:37:40;13.93;;;12.93;;
57615;SDS011;43816;52.054;-9.494;2024-01-30T00:37:50;13.53;;;12.63;;
57615;SDS011;43816;52.054;-9.494;2024-01-30T00:38:01;13.75;;;12.77;;
57615;SDS011;43816;52.054;-9.494;2024-01-30T00:38:11;13.90;;;12.90;;
57615;SDS011;43816;52.054;-9.494;2024-01-30T00:38:21;14.27;;;13.27;;
57615;SDS011;43816;52.054;-9.494;2024-01-30T00:38:32;14.43;;;13.32;;
57615;SDS011;43816;52.054;-9.494;2024-01-30T00:38:43;14.43;;;13.32;;
57615;SDS011;43816;52.054;-9.494;2024-01-30T00:38:53;14.37;;;13.27;;
57615;SDS011;43816;52.054;-9.494;2024-01-30T00:39:03;14.50;;;13.40;;
57615;SDS011;43816;52.054;-9.494;2024-01-30T00:39:13;14.25;;;13.15;;
57615;SDS011;43816;52.054;-9.494;2024-01-30T00:39:24;13.90;;;12.80;;
57615;SDS011;43816;52.054;-9.494;2024-01-30T00:39:34;13.60;;;12.60;;
57615;SDS011;43816;52.054;-9.494;2024-01-30T00:39:44;13.77;;;12.73;;
57615;SDS011;43816;52.054;-9.494;2024-01-30T00:39:57;14.07;;;12.97;;
57615;SDS011;43816;52.054;-9.494;2024-01-30T00:40:08;14.30;;;13.10;;
57615;SDS011;43816;52.054;-9.494;2024-01-30T00:40:19;13.68;;;12.57;;
57615;SDS011;43816;52.054;-9.494;2024-01-30T00:40:29;13.73;;;12.63;;
57615;SDS011;43816;52.054;-9.494;2024-01-30T00:40:39;13.43;;;12.43;;
57615;SDS011;43816;52.054;-9.494;2024-01-30T00:40:49;13.80;;;12.73;;
57615;SDS011;43816;52.054;-9.494;2024-01-30T00:41:00;13.53;;;12.50;;
57615;SDS011;43816;52.054;-9.494;2024-01-30T00:41:10;13.70;;;12.60;;
57615;SDS011;43816;52.054;-9.494;2024-01-30T00:41:20;13.60;;;12.53;;
57615;SDS011;43816;52.054;-9.494;2024-01-30T00:41:31;13.90;;;12.80;;
57615;SDS011;43816;52.054;-9.494;2024-01-30T00:41:41;13.90;;;12.80;;
57615;SDS011;43816;52.054;-9.494;2024-01-30T00:41:51;13.87;;;12.80;;
57615;SDS011;43816;52.054;-9.494;2024-01-30T00:42:02;13.73;;;12.73;;
57615;SDS011;43816;52.054;-9.494;2024-01-30T00:42:12;13.63;;;12.63;;
57615;SDS011;43816;52.054;-9.494;2024-01-30T00:42:22;13.27;;;12.27;;
57615;SDS011;43816;52.054;-9.494;2024-01-30T00:42:33;13.18;;;12.15;;
57615;SDS011;43816;52.054;-9.494;2024-01-30T00:42:43;13.30;;;12.30;;
57615;SDS011;43816;52.054;-9.494;2024-01-30T00:42:54;13.68;;;12.68;;
57615;SDS011;43816;52.054;-9.494;2024-01-30T00:43:04;13.60;;;12.60;;
57615;SDS011;43816;52.054;-9.494;2024-01-30T00:43:15;13.80;;;12.80;;
57615;SDS011;43816;52.054;-9.494;2024-01-30T00:43:26;13.50;;;12.40;;
57615;SDS011;43816;52.054;-9.494;2024-01-30T00:43:36;13.60;;;12.40;;
57615;SDS011;43816;52.054;-9.494;2024-01-30T00:43:46;13.13;;;12.02;;
57615;SDS011;43816;52.054;-9.494;2024-01-30T00:43:57;13.23;;;12.23;;
57615;SDS011;43816;52.054;-9.494;2024-01-30T00:44:07;13.07;;;12.18;;
57615;SDS011;43816;52.054;-9.494;2024-01-30T00:44:18;13.53;;;12.53;;
57615;SDS011;43816;52.054;-9.494;2024-01-30T00:44:28;13.43;;;12.43;;
57615;SDS011;43816;52.054;-9.494;2024-01-30T00:44:40;13.20;;;12.20;;
57615;SDS011;43816;52.054;-9.494;2024-01-30T00:44:50;13.52;;;12.52;;
57615;SDS011;43816;52.054;-9.494;2024-01-30T00:45:00;13.38;;;12.38;;
57615;SDS011;43816;52.054;-9.494;2024-01-30T00:45:13;13.10;;;12.10;;
57615;SDS011;43816;52.054;-9.494;2024-01-30T00:45:24;12.32;;;11.43;;
57615;SDS011;43816;52.054;-9.494;2024-01-30T00:45:35;12.53;;;11.60;;
57615;SDS011;43816;52.054;-9.494;2024-01-30T00:45:45;12.95;;;11.95;;
57615;SDS011;43816;52.054;-9.494;2024-01-30T00:45:55;13.33;;;12.33;;
57615;SDS011;43816;52.054;-9.494;2024-01-30T00:46:06;13.23;;;12.23;;
57615;SDS011;43816;52.054;-9.494;2024-01-30T00:46:16;13.68;;;12.57;;
57615;SDS011;43816;52.054;-9.494;2024-01-30T00:46:26;13.33;;;12.33;;
57615;SDS011;43816;52.054;-9.494;2024-01-30T00:46:36;13.60;;;12.60;;
57615;SDS011;43816;52.054;-9.494;2024-01-30T00:46:47;13.35;;;12.45;;
57615;SDS011;43816;52.054;-9.494;2024-01-30T00:46:57;13.30;;;12.40;;
57615;SDS011;43816;52.054;-9.494;2024-01-30T00:47:07;13.40;;;12.40;;
57615;SDS011;43816;52.054;-9.494;2024-01-30T00:47:18;13.20;;;12.20;;
57615;SDS011;43816;52.054;-9.494;2024-01-30T00:47:29;13.27;;;12.23;;
57615;SDS011;43816;52.054;-9.494;2024-01-30T00:47:39;13.43;;;12.35;;
57615;SDS011;43816;52.054;-9.494;2024-01-30T00:47:51;13.77;;;12.67;;
57615;SDS011;43816;52.054;-9.494;2024-01-30T00:48:01;13.88;;;12.80;;
57615;SDS011;43816;52.054;-9.494;2024-01-30T00:48:12;13.60;;;12.60;;
57615;SDS011;43816;52.054;-9.494;2024-01-30T00:48:22;13.17;;;12.17;;
57615;SDS011;43816;52.054;-9.494;2024-01-30T00:48:32;12.60;;;11.70;;
57615;SDS011;43816;52.054;-9.494;2024-01-30T00:48:42;12.55;;;11.65;;
57615;SDS011;43816;52.054;-9.494;2024-01-30T00:48:53;12.60;;;11.70;;
57615;SDS011;43816;52.054;-9.494;2024-01-30T00:49:03;13.33;;;12.33;;
57615;SDS011;43816;52.054;-9.494;2024-01-30T00:49:13;13.43;;;12.43;;
57615;SDS011;43816;52.054;-9.494;2024-01-30T00:49:24;13.43;;;12.50;;
57615;SDS011;43816;52.054;-9.494;2024-01-30T00:49:34;13.13;;;12.23;;
57615;SDS011;43816;52.054;-9.494;2024-01-30T00:49:44;13.52;;;12.52;;
57615;SDS011;43816;52.054;-9.494;2024-01-30T00:49:57;13.48;;;12.43;;
57615;SDS011;43816;52.054;-9.494;2024-01-30T00:50:08;13.53;;;12.53;;
57615;SDS011;43816;52.054;-9.494;2024-01-30T00:50:18;13.45;;;12.45;;
57615;SDS011;43816;52.054;-9.494;2024-01-30T00:50:29;13.70;;;12.70;;
57615;SDS011;43816;52.054;-9.494;2024-01-30T00:50:39;13.52;;;12.52;;
57615;SDS011;43816;52.054;-9.494;2024-01-30T00:50:49;13.03;;;12.07;;
57615;SDS011;43816;52.054;-9.494;2024-01-30T00:51:00;12.77;;;11.80;;
57615;SDS011;43816;52.054;-9.494;2024-01-30T00:51:10;12.33;;;11.43;;
57615;SDS011;43816;52.054;-9.494;2024-01-30T00:51:20;12.73;;;11.83;;
57615;SDS011;43816;52.054;-9.494;2024-01-30T00:51:32;12.97;;;12.07;;
57615;SDS011;43816;52.054;-9.494;2024-01-30T00:51:42;13.70;;;12.70;;
57615;SDS011;43816;52.054;-9.494;2024-01-30T00:51:52;13.53;;;12.53;;
57615;SDS011;43816;52.054;-9.494;2024-01-30T00:52:02;13.67;;;12.67;;
57615;SDS011;43816;52.054;-9.494;2024-01-30T00:52:13;13.43;;;12.52;;
57615;SDS011;43816;52.054;-9.494;2024-01-30T00:52:23;13.37;;;12.43;;
57615;SDS011;43816;52.054;-9.494;2024-01-30T00:52:34;13.05;;;12.13;;
57615;SDS011;43816;52.054;-9.494;2024-01-30T00:52:44;12.87;;;11.87;;
57615;SDS011;43816;52.054;-9.494;2024-01-30T00:52:54;12.60;;;11.60;;
57615;SDS011;43816;52.054;-9.494;2024-01-30T00:53:05;12.30;;;11.40;;
57615;SDS011;43816;52.054;-9.494;2024-01-30T00:53:15;12.63;;;11.73;;
57615;SDS011;43816;52.054;-9.494;2024-01-30T00:53:26;13.00;;;12.10;;
57615;SDS011;43816;52.054;-9.494;2024-01-30T00:53:36;13.47;;;12.47;;
57615;SDS011;43816;52.054;-9.494;2024-01-30T00:53:46;13.43;;;12.43;;
57615;SDS011;43816;52.054;-9.494;2024-01-30T00:53:57;13.10;;;12.10;;
57615;SDS011;43816;52.054;-9.494;2024-01-30T00:54:07;12.73;;;11.83;;
57615;SDS011;43816;52.054;-9.494;2024-01-30T00:54:17;12.93;;;11.93;;
57615;SDS011;43816;52.054;-9.494;2024-01-30T00:54:27;12.90;;;11.90;;
57615;SDS011;43816;52.054;-9.494;2024-01-30T00:54:38;13.00;;;12.00;;
57615;SDS011;43816;52.054;-9.494;2024-01-30T00:54:48;12.80;;;11.80;;
57615;SDS011;43816;52.054;-9.494;2024-01-30T00:54:59;12.73;;;11.80;;
57615;SDS011;43816;52.054;-9.494;2024-01-30T00:55:09;12.38;;;11.48;;
57615;SDS011;43816;52.054;-9.494;2024-01-30T00:55:20;12.40;;;11.50;;
57615;SDS011;43816;52.054;-9.494;2024-01-30T00:55:30;12.57;;;11.65;;
57615;SDS011;43816;52.054;-9.494;2024-01-30T00:55:40;12.83;;;11.83;;
57615;SDS011;43816;52.054;-9.494;2024-01-30T00:55:51;12.70;;;11.80;;
57615;SDS011;43816;52.054;-9.494;2024-01-30T00:56:01;12.70;;;11.80;;
57615;SDS011;43816;52.054;-9.494;2024-01-30T00:56:11;12.70;;;11.80;;
57615;SDS011;43816;52.054;-9.494;2024-01-30T00:56:21;12.50;;;11.60;;
57615;SDS011;43816;52.054;-9.494;2024-01-30T00:56:33;12.75;;;11.80;;
57615;SDS011;43816;52.054;-9.494;2024-01-30T00:56:44;12.95;;;11.95;;
57615;SDS011;43816;52.054;-9.494;2024-01-30T00:56:54;13.07;;;12.07;;
57615;SDS011;43816;52.054;-9.494;2024-01-30T00:57:04;13.07;;;12.07;;
57615;SDS011;43816;52.054;-9.494;2024-01-30T00:57:15;12.85;;;11.85;;
57615;SDS011;43816;52.054;-9.494;2024-01-30T00:57:25;12.80;;;11.90;;
57615;SDS011;43816;52.054;-9.494;2024-01-30T00:57:35;12.75;;;11.85;;
57615;SDS011;43816;52.054;-9.494;2024-01-30T00:57:46;13.00;;;12.10;;
57615;SDS011;43816;52.054;-9.494;2024-01-30T00:57:56;12.80;;;11.90;;
57615;SDS011;43816;52.054;-9.494;2024-01-30T00:58:06;12.50;;;11.60;;
57615;SDS011;43816;52.054;-9.494;2024-01-30T00:58:17;12.40;;;11.50;;
57615;SDS011;43816;52.054;-9.494;2024-01-30T00:58:27;12.77;;;11.80;;
57615;SDS011;43816;52.054;-9.494;2024-01-30T00:58:37;13.00;;;12.00;;
57615;SDS011;43816;52.054;-9.494;2024-01-30T00:58:48;13.43;;;12.43;;
57615;SDS011;43816;52.054;-9.494;2024-01-30T00:58:58;13.03;;;12.10;;
57615;SDS011;43816;52.054;-9.494;2024-01-30T00:59:08;13.30;;;12.30;;
57615;SDS011;43816;52.054;-9.494;2024-01-30T00:59:18;12.87;;;11.97;;
57615;SDS011;43816;52.054;-9.494;2024-01-30T00:59:29;12.73;;;11.83;;
57615;SDS011;43816;52.054;-9.494;2024-01-30T00:59:39;12.38;;;11.48;;
57615;SDS011;43816;52.054;-9.494;2024-01-30T00:59:49;12.47;;;11.57;;
57615;SDS011;43816;52.054;-9.494;2024-01-30T01:00:00;12.50;;;11.50;;
57615;SDS011;43816;52.054;-9.494;2024-01-30T01:00:10;12.70;;;11.65;;
57615;SDS011;43816;52.054;-9.494;2024-01-30T01:00:21;12.60;;;11.65;;
57615;SDS011;43816;52.054;-9.494;2024-01-30T01:00:31;12.50;;;11.60;;
57615;SDS011;43816;52.054;-9.494;2024-01-30T01:00:42;12.18;;;11.38;;
57615;SDS011;43816;52.054;-9.494;2024-01-30T01:00:52;12.23;;;11.33;;